Terminal Aerodrome Forecast
Issued by NWS Pocatello, ID

Home | Current Version | Previous Version | Text Only | Print | Product List | Glossary On
Versions: 1 2 3 4 5 6 7 8 9 10 11 12 13 14 15 16 17 18 19 20 21 22 23 24 25
848
FTUS45 KPIH 241531 AAC
TAFPIH
TAF AMD
KPIH 241531Z 2416/2512 22011KT 6SM -RA BR SCT020 OVC040
     FM241700 25011KT P6SM VCSH SCT025 BKN040
     FM250000 24011KT P6SM BKN040
     FM250600 21010KT P6SM BKN030=

USA.gov is the U.S. government's official web portal to all federal, state and local government web resources and services.